createdAt,value
2023-04-18T00:01:30.907Z,15.51
2023-04-18T00:03:58.034Z,15.52
2023-04-18T00:06:25.970Z,15.51
2023-04-18T00:08:52.351Z,15.50
2023-04-18T00:11:18.801Z,15.47
2023-04-18T00:13:47.311Z,15.47
2023-04-18T00:16:13.857Z,15.47
2023-04-18T00:18:40.511Z,15.48
2023-04-18T00:21:08.527Z,15.48
2023-04-18T00:23:35.239Z,15.47
2023-04-18T00:26:01.855Z,15.46
2023-04-18T00:28:28.331Z,15.45
2023-04-18T00:30:54.869Z,15.45
2023-04-18T00:33:21.304Z,15.44
2023-04-18T00:35:47.738Z,15.45
2023-04-18T00:38:14.105Z,15.46
2023-04-18T00:40:41.076Z,15.46
2023-04-18T00:43:08.084Z,15.48
2023-04-18T00:45:34.661Z,15.46
2023-04-18T00:48:01.287Z,15.46
2023-04-18T00:50:27.778Z,15.48
2023-04-18T00:52:54.191Z,15.49
2023-04-18T00:55:20.626Z,15.49
2023-04-18T00:57:47.057Z,15.50
2023-04-18T01:00:13.740Z,15.51
2023-04-18T01:02:40.553Z,15.51
2023-04-18T01:05:08.050Z,15.54
2023-04-18T01:07:35.519Z,15.59
2023-04-18T01:10:02.290Z,15.61
2023-04-18T01:12:28.916Z,15.63
2023-04-18T01:14:55.393Z,15.67
2023-04-18T01:17:23.421Z,15.71
2023-04-18T01:19:51.262Z,15.73
2023-04-18T01:22:17.597Z,15.76
2023-04-18T01:24:43.992Z,15.79
2023-04-18T01:27:13.839Z,15.80
2023-04-18T01:29:40.379Z,15.82
2023-04-18T01:32:07.387Z,15.83
2023-04-18T01:34:33.852Z,15.85
2023-04-18T01:37:00.342Z,15.89
2023-04-18T01:39:26.943Z,15.94
2023-04-18T01:41:53.496Z,15.99
2023-04-18T01:44:19.991Z,16.03
2023-04-18T01:46:46.552Z,16.05
2023-04-18T01:49:13.054Z,16.06
2023-04-18T01:51:39.513Z,16.06
2023-04-18T01:54:05.946Z,16.06
2023-04-18T01:56:32.419Z,16.03
2023-04-18T01:58:58.887Z,16.04
2023-04-18T02:01:25.358Z,16.04
2023-04-18T02:03:51.995Z,16.03
2023-04-18T02:06:18.509Z,16.03
2023-04-18T02:08:45.005Z,16.03
2023-04-18T02:11:11.561Z,16.05
2023-04-18T02:13:37.921Z,16.07
2023-04-18T02:16:04.472Z,16.07
2023-04-18T02:18:34.556Z,16.08
2023-04-18T02:21:01.110Z,16.09
2023-04-18T02:23:27.546Z,16.08
2023-04-18T02:25:54.603Z,16.09
2023-04-18T02:28:21.014Z,16.14
2023-04-18T02:30:47.434Z,16.20
2023-04-18T02:33:13.816Z,16.26
2023-04-18T02:35:40.293Z,16.27
2023-04-18T02:38:06.699Z,16.27
2023-04-18T02:40:33.121Z,16.34
2023-04-18T02:42:59.682Z,16.38
2023-04-18T02:45:26.158Z,16.38
2023-04-18T02:47:56.135Z,16.39
2023-04-18T02:50:23.297Z,16.36
2023-04-18T02:52:49.728Z,16.31
2023-04-18T02:55:16.309Z,16.24
2023-04-18T02:57:42.716Z,16.19
2023-04-18T03:00:09.428Z,16.13
2023-04-18T03:02:36.192Z,16.07
2023-04-18T03:05:02.903Z,16.01
2023-04-18T03:07:30.882Z,15.94
2023-04-18T03:09:57.527Z,15.85
2023-04-18T03:12:23.962Z,15.82
2023-04-18T03:14:50.401Z,15.79
2023-04-18T03:17:16.892Z,15.79
2023-04-18T03:19:43.359Z,15.79
2023-04-18T03:22:10.098Z,15.79
2023-04-18T03:24:36.543Z,15.74
2023-04-18T03:27:03.065Z,15.71
2023-04-18T03:29:29.544Z,15.67
2023-04-18T03:31:55.949Z,15.63
2023-04-18T03:34:22.285Z,15.61
2023-04-18T03:36:48.719Z,15.62
2023-04-18T03:39:15.152Z,15.63
2023-04-18T03:41:41.739Z,15.63
2023-04-18T03:44:09.010Z,15.61
2023-04-18T03:46:35.620Z,15.61
2023-04-18T03:49:02.068Z,15.61
2023-04-18T03:51:32.238Z,15.59
2023-04-18T03:53:58.669Z,15.59
2023-04-18T03:56:25.223Z,15.57
2023-04-18T03:58:51.723Z,15.57
2023-04-18T04:01:18.201Z,15.57
2023-04-18T04:03:44.799Z,15.58
2023-04-18T04:06:11.338Z,15.58
2023-04-18T04:08:37.732Z,15.58
2023-04-18T04:11:04.239Z,15.55
2023-04-18T04:13:33.693Z,15.57
2023-04-18T04:16:00.261Z,15.60
2023-04-18T04:18:31.199Z,15.61
2023-04-18T04:20:59.218Z,15.61
2023-04-18T04:23:26.817Z,15.63
2023-04-18T04:25:53.641Z,15.66
2023-04-18T04:28:22.774Z,15.68
2023-04-18T04:30:51.357Z,15.70
2023-04-18T04:33:19.375Z,15.72
2023-04-18T04:35:47.485Z,15.69
2023-04-18T04:38:18.063Z,15.64
2023-04-18T04:40:44.483Z,15.59
2023-04-18T04:43:12.712Z,15.53
2023-04-18T04:45:41.505Z,15.51
2023-04-18T04:48:08.345Z,15.49
2023-04-18T04:50:38.588Z,15.47
2023-04-18T04:53:06.369Z,15.47
2023-04-18T04:55:34.106Z,15.46
2023-04-18T04:58:00.682Z,15.44
2023-04-18T05:00:27.170Z,15.47
2023-04-18T05:02:53.997Z,15.48
2023-04-18T05:05:20.500Z,15.49
2023-04-18T05:07:47.184Z,15.51
2023-04-18T05:10:13.743Z,15.53
2023-04-18T05:12:40.219Z,15.54
2023-04-18T05:15:06.934Z,15.56
2023-04-18T05:17:33.422Z,15.60
2023-04-18T05:19:59.922Z,15.65
2023-04-18T05:22:26.614Z,15.65
2023-04-18T05:24:53.015Z,15.69
2023-04-18T05:27:19.448Z,15.71
2023-04-18T05:29:47.655Z,15.72
2023-04-18T05:32:14.875Z,15.73
2023-04-18T05:34:42.358Z,15.77
2023-04-18T05:37:08.801Z,15.80
2023-04-18T05:39:36.615Z,15.83
2023-04-18T05:42:03.408Z,15.84
2023-04-18T05:44:29.898Z,15.88
2023-04-18T05:46:56.272Z,15.88
2023-04-18T05:49:22.796Z,15.92
2023-04-18T05:51:49.898Z,15.95
2023-04-18T05:54:16.753Z,15.98
2023-04-18T05:56:43.236Z,16.00
2023-04-18T05:59:09.626Z,16.03
2023-04-18T06:01:36.108Z,16.05
2023-04-18T06:04:02.847Z,16.09
2023-04-18T06:06:31.550Z,16.15
2023-04-18T06:08:58.055Z,16.19
2023-04-18T06:11:24.560Z,16.24
2023-04-18T06:13:51.314Z,16.29
2023-04-18T06:16:17.895Z,16.33
2023-04-18T06:18:44.279Z,16.37
2023-04-18T06:21:10.817Z,16.43
2023-04-18T06:23:38.621Z,16.49
2023-04-18T06:26:05.146Z,16.55
2023-04-18T06:28:31.553Z,16.62
2023-04-18T06:30:58.041Z,16.66
2023-04-18T06:33:24.468Z,16.72
2023-04-18T06:35:51.136Z,16.76
2023-04-18T06:38:17.553Z,16.83
2023-04-18T06:40:43.985Z,16.90
2023-04-18T06:43:10.502Z,16.98
2023-04-18T06:45:37.003Z,17.06
2023-04-18T06:48:04.205Z,17.12
2023-04-18T06:50:30.914Z,17.19
2023-04-18T06:52:57.330Z,17.26
2023-04-18T06:55:23.729Z,17.34
2023-04-18T06:57:50.196Z,17.39
2023-04-18T07:00:17.981Z,17.47
2023-04-18T07:02:44.696Z,17.57
2023-04-18T07:05:11.494Z,17.65
2023-04-18T07:07:38.015Z,17.74
2023-04-18T07:10:04.708Z,17.85
2023-04-18T07:12:31.124Z,17.97
2023-04-18T07:14:57.616Z,18.08
2023-04-18T07:17:24.066Z,18.17
2023-04-18T07:19:52.817Z,18.28
2023-04-18T07:22:19.254Z,18.43
2023-04-18T07:24:45.864Z,18.56
2023-04-18T07:27:12.381Z,18.70
2023-04-18T07:29:38.943Z,18.90
2023-04-18T07:32:08.137Z,19.11
2023-04-18T07:34:36.207Z,19.35
2023-04-18T07:37:02.732Z,19.56
2023-04-18T07:39:29.312Z,19.59
2023-04-18T07:41:55.990Z,19.55
2023-04-18T07:44:22.573Z,19.48
2023-04-18T07:46:49.035Z,19.37
2023-04-18T07:49:16.042Z,19.21
2023-04-18T07:51:42.853Z,19.09
2023-04-18T07:54:11.190Z,19.06
2023-04-18T07:56:37.744Z,19.02
2023-04-18T07:59:05.396Z,18.94
2023-04-18T08:01:32.059Z,18.82
2023-04-18T08:04:01.797Z,18.79
2023-04-18T08:06:29.045Z,18.72
2023-04-18T08:08:55.653Z,18.72
2023-04-18T08:11:22.156Z,18.69
2023-04-18T08:13:48.625Z,18.65
2023-04-18T08:16:17.349Z,18.63
2023-04-18T08:18:44.300Z,18.64
2023-04-18T08:21:11.248Z,18.63
2023-04-18T08:23:37.736Z,18.63
2023-04-18T08:26:04.211Z,18.63
2023-04-18T08:28:30.744Z,18.69
2023-04-18T08:30:57.322Z,18.72
2023-04-18T08:33:24.576Z,18.78
2023-04-18T08:35:51.533Z,18.82
2023-04-18T08:38:18.217Z,18.88
2023-04-18T08:40:44.848Z,18.95
2023-04-18T08:43:14.048Z,18.90
2023-04-18T08:45:43.987Z,18.84
2023-04-18T08:48:15.332Z,18.83
2023-04-18T08:50:41.967Z,18.79
2023-04-18T08:53:08.439Z,18.80
2023-04-18T08:55:36.019Z,18.75
2023-04-18T08:58:02.898Z,18.72
2023-04-18T09:00:29.573Z,18.70
2023-04-18T09:02:59.264Z,18.69
2023-04-18T09:05:26.839Z,18.71
2023-04-18T09:07:53.799Z,18.81
2023-04-18T09:10:43.060Z,18.81
2023-04-18T09:13:11.406Z,18.82
2023-04-18T09:15:37.897Z,18.83
2023-04-18T09:18:04.404Z,18.80
2023-04-18T09:20:34.558Z,18.78
2023-04-18T09:23:04.364Z,18.71
2023-04-18T09:25:36.114Z,18.67
2023-04-18T09:28:03.151Z,18.58
2023-04-18T09:30:39.614Z,18.53
2023-04-18T09:33:09.511Z,18.47
2023-04-18T09:35:36.939Z,18.43
2023-04-18T09:38:06.410Z,18.38
2023-04-18T09:40:33.128Z,18.37
2023-04-18T09:42:59.621Z,18.36
2023-04-18T09:45:26.505Z,18.34
2023-04-18T09:47:53.263Z,18.33
2023-04-18T09:50:20.837Z,18.32
2023-04-18T09:52:47.577Z,18.39
2023-04-18T09:55:16.495Z,18.52
2023-04-18T09:57:46.766Z,18.64
2023-04-18T10:00:20.277Z,18.74
2023-04-18T10:02:59.866Z,18.91
2023-04-18T10:05:27.448Z,19.01
2023-04-18T10:07:54.451Z,19.09
2023-04-18T10:10:20.953Z,19.18
2023-04-18T10:12:48.109Z,19.24
2023-04-18T10:15:15.777Z,19.31
2023-04-18T10:18:02.583Z,19.41
2023-04-18T10:20:31.365Z,19.49
2023-04-18T10:23:01.521Z,19.51
2023-04-18T10:25:39.936Z,19.49
2023-04-18T10:28:06.963Z,19.47
2023-04-18T10:30:42.551Z,19.52
2023-04-18T10:33:32.272Z,19.57
2023-04-18T10:36:19.829Z,19.59
2023-04-18T10:38:47.448Z,19.60
2023-04-18T10:41:14.023Z,19.64
2023-04-18T10:43:59.165Z,19.69
2023-04-18T10:46:32.221Z,19.73
2023-04-18T10:49:18.135Z,19.71
2023-04-18T10:51:48.069Z,19.74
2023-04-18T10:54:22.579Z,19.79
2023-04-18T10:56:55.965Z,19.81
2023-04-18T10:59:22.821Z,19.84
2023-04-18T11:01:49.658Z,19.92
2023-04-18T11:04:16.677Z,19.96
2023-04-18T11:06:50.282Z,20.02
2023-04-18T11:09:16.836Z,20.04
2023-04-18T11:11:44.705Z,20.06
2023-04-18T11:14:11.301Z,20.06
2023-04-18T11:16:38.021Z,20.07
2023-04-18T11:19:20.278Z,20.11
2023-04-18T11:21:47.249Z,20.12
2023-04-18T11:24:20.597Z,20.15
2023-04-18T11:26:47.126Z,20.21
2023-04-18T11:29:13.623Z,20.30
2023-04-18T11:31:42.506Z,20.38
2023-04-18T11:34:09.105Z,20.46
2023-04-18T11:36:38.228Z,20.54
2023-04-18T11:39:04.632Z,20.60
2023-04-18T11:41:30.978Z,20.65
2023-04-18T11:43:57.521Z,20.69
2023-04-18T11:46:23.978Z,20.70
2023-04-18T11:48:53.350Z,20.71
2023-04-18T11:51:34.256Z,20.70
2023-04-18T11:54:00.781Z,20.70
2023-04-18T11:56:27.303Z,20.72
2023-04-18T11:58:53.771Z,20.80
2023-04-18T12:01:21.295Z,20.87
2023-04-18T12:04:07.122Z,20.96
2023-04-18T12:06:46.548Z,21.04
2023-04-18T12:09:16.428Z,21.12
2023-04-18T12:11:42.890Z,21.15
2023-04-18T12:14:21.972Z,21.19
2023-04-18T12:16:50.433Z,21.23
2023-04-18T12:19:20.767Z,21.31
2023-04-18T12:25:32.864Z,21.43
2023-04-18T12:28:06.441Z,21.46
2023-04-18T12:30:36.026Z,21.52
2023-04-18T12:33:04.339Z,21.56
2023-04-18T12:35:32.444Z,21.59
2023-04-18T12:38:00.025Z,21.57
2023-04-18T12:40:26.726Z,21.49
2023-04-18T12:42:53.641Z,21.43
2023-04-18T12:45:20.414Z,21.41
2023-04-18T12:47:47.662Z,21.39
2023-04-18T12:50:18.163Z,21.39
2023-04-18T12:52:45.002Z,21.45
2023-04-18T12:55:11.977Z,21.54
2023-04-18T12:57:38.522Z,21.61
2023-04-18T13:00:13.246Z,21.63
2023-04-18T13:02:41.009Z,21.67
2023-04-18T13:05:08.372Z,21.69
2023-04-18T13:07:34.905Z,21.76
2023-04-18T13:10:01.475Z,21.81
2023-04-18T13:12:29.494Z,21.86
2023-04-18T13:14:56.338Z,21.92
2023-04-18T13:17:22.847Z,21.95
2023-04-18T13:19:49.449Z,21.96
2023-04-18T13:22:16.047Z,21.97
2023-04-18T13:24:42.523Z,22.00
2023-04-18T13:27:11.616Z,22.04
2023-04-18T13:29:38.458Z,22.06
2023-04-18T13:32:05.783Z,22.05
2023-04-18T13:34:37.396Z,22.07
2023-04-18T13:37:03.932Z,22.09
2023-04-18T13:39:31.845Z,22.07
2023-04-18T13:41:58.472Z,22.03
2023-04-18T13:44:25.100Z,21.98
2023-04-18T13:46:51.955Z,21.93
2023-04-18T13:49:18.533Z,21.92
2023-04-18T13:51:45.063Z,21.87
2023-04-18T13:54:14.746Z,21.85
2023-04-18T13:56:41.619Z,21.81
2023-04-18T13:59:08.252Z,21.78
2023-04-18T14:01:34.918Z,21.75
2023-04-18T14:04:02.920Z,21.72
2023-04-18T14:06:29.555Z,21.67
2023-04-18T14:08:57.254Z,21.59
2023-04-18T14:11:23.736Z,21.56
2023-04-18T14:13:50.242Z,21.51
2023-04-18T14:16:16.721Z,21.45
2023-04-18T14:18:43.515Z,21.34
2023-04-18T14:21:11.124Z,21.23
2023-04-18T14:23:38.862Z,21.17
2023-04-18T14:26:05.400Z,21.00
2023-04-18T14:28:32.112Z,20.83
2023-04-18T14:31:02.288Z,20.73
2023-04-18T14:33:29.324Z,20.69
2023-04-18T14:35:55.902Z,20.64
2023-04-18T14:38:23.575Z,20.59
2023-04-18T14:40:51.023Z,20.51
2023-04-18T14:43:17.527Z,20.44
2023-04-18T14:45:44.026Z,20.39
2023-04-18T14:48:10.650Z,20.35
2023-04-18T14:50:42.424Z,20.30
2023-04-18T14:53:08.981Z,20.21
2023-04-18T14:55:37.428Z,20.14
2023-04-18T14:58:03.982Z,20.06
2023-04-18T15:00:31.657Z,20.01
2023-04-18T15:02:58.222Z,20.01
2023-04-18T15:05:24.819Z,19.97
2023-04-18T15:07:51.964Z,19.92
2023-04-18T15:10:22.526Z,19.91
2023-04-18T15:12:49.025Z,19.90
2023-04-18T15:15:15.621Z,19.91
2023-04-18T15:17:42.137Z,19.89
2023-04-18T15:20:09.565Z,19.87
2023-04-18T15:22:36.152Z,19.84
2023-04-18T15:25:04.063Z,19.82
2023-04-18T15:27:31.724Z,19.82
2023-04-18T15:29:58.228Z,19.82
2023-04-18T15:32:24.848Z,19.76
2023-04-18T15:34:51.548Z,19.68
2023-04-18T15:37:17.980Z,19.65
2023-04-18T15:39:44.450Z,19.65
2023-04-18T15:42:10.919Z,19.67
2023-04-18T15:44:37.359Z,19.67
2023-04-18T15:47:03.802Z,19.66
2023-04-18T15:49:31.229Z,19.67
2023-04-18T15:51:57.628Z,19.67
2023-04-18T15:54:24.138Z,19.68
2023-04-18T15:56:50.853Z,19.72
2023-04-18T15:59:17.480Z,19.76
2023-04-18T16:01:46.026Z,19.79
2023-04-18T16:04:13.043Z,19.79
2023-04-18T16:06:40.421Z,19.78
2023-04-18T16:09:06.949Z,19.78
2023-04-18T16:11:33.388Z,19.78
2023-04-18T16:13:59.794Z,19.77
2023-04-18T16:16:28.483Z,19.73
2023-04-18T16:18:55.212Z,19.67
2023-04-18T16:21:21.701Z,19.63
2023-04-18T16:23:48.830Z,19.61
2023-04-18T16:26:15.311Z,19.63
2023-04-18T16:28:42.111Z,19.62
2023-04-18T16:31:08.580Z,19.62
2023-04-18T16:33:35.695Z,19.63
2023-04-18T16:36:05.157Z,19.60
2023-04-18T16:38:31.851Z,19.59
2023-04-18T16:40:58.741Z,19.57
2023-04-18T16:43:27.002Z,19.55
2023-04-18T16:45:56.341Z,19.54
2023-04-18T16:48:23.310Z,19.54
2023-04-18T16:50:50.010Z,19.56
2023-04-18T16:53:16.746Z,19.59
2023-04-18T16:55:43.222Z,19.62
2023-04-18T16:58:09.868Z,19.66
2023-04-18T17:00:38.269Z,19.70
2023-04-18T17:03:07.295Z,19.73
2023-04-18T17:05:34.108Z,19.74
2023-04-18T17:08:01.088Z,19.74
2023-04-18T17:10:29.330Z,19.72
2023-04-18T17:12:56.250Z,19.68
2023-04-18T17:15:22.789Z,19.63
2023-04-18T17:17:50.348Z,19.60
2023-04-18T17:20:17.894Z,19.54
2023-04-18T17:22:46.010Z,19.52
2023-04-18T17:25:12.652Z,19.47
2023-04-18T17:27:39.849Z,19.44
2023-04-18T17:30:06.977Z,19.41
2023-04-18T17:32:35.703Z,19.36
2023-04-18T17:35:06.517Z,19.33
2023-04-18T17:37:33.082Z,19.26
2023-04-18T17:40:00.507Z,19.21
2023-04-18T17:42:27.082Z,19.15
2023-04-18T17:44:53.484Z,19.09
2023-04-18T17:47:19.886Z,19.03
2023-04-18T17:49:46.896Z,18.98
2023-04-18T17:52:18.157Z,18.94
2023-04-18T17:54:46.294Z,18.88
2023-04-18T17:57:12.827Z,18.80
2023-04-18T17:59:40.706Z,18.77
2023-04-18T18:02:07.501Z,18.70
2023-04-18T18:04:34.081Z,18.65
2023-04-18T18:07:00.941Z,18.60
2023-04-18T18:09:27.448Z,18.56
2023-04-18T18:11:55.915Z,18.51
2023-04-18T18:14:22.850Z,18.45
2023-04-18T18:16:50.429Z,18.42
2023-04-18T18:19:17.454Z,18.39
2023-04-18T18:21:43.917Z,18.38
2023-04-18T18:24:11.973Z,18.36
2023-04-18T18:26:38.375Z,18.35
2023-04-18T18:29:09.300Z,18.35
2023-04-18T18:31:36.071Z,18.35
2023-04-18T18:34:02.611Z,18.34
2023-04-18T18:36:29.107Z,18.33
2023-04-18T18:38:55.917Z,18.31
2023-04-18T18:41:22.876Z,18.29
2023-04-18T18:43:49.629Z,18.31
2023-04-18T18:46:16.218Z,18.31
2023-04-18T18:48:42.820Z,18.31
2023-04-18T18:51:09.287Z,18.26
2023-04-18T18:53:36.821Z,18.22
2023-04-18T18:56:04.961Z,18.17
2023-04-18T18:58:31.633Z,18.14
2023-04-18T19:01:00.834Z,18.12
2023-04-18T19:03:27.926Z,18.07
2023-04-18T19:05:56.391Z,17.99
2023-04-18T19:08:24.015Z,17.94
2023-04-18T19:10:51.373Z,17.92
2023-04-18T19:13:21.656Z,17.90
2023-04-18T19:15:49.831Z,17.87
2023-04-18T19:18:18.095Z,17.82
2023-04-18T19:20:46.886Z,17.76
2023-04-18T19:23:14.874Z,17.73
2023-04-18T19:25:41.541Z,17.70
2023-04-18T19:28:08.033Z,17.67
2023-04-18T19:30:34.526Z,17.61
2023-04-18T19:33:01.081Z,17.56
2023-04-18T19:35:27.533Z,17.51
2023-04-18T19:38:01.295Z,17.44
2023-04-18T19:40:28.152Z,17.41
2023-04-18T19:42:56.879Z,17.39
2023-04-18T19:45:23.647Z,17.39
2023-04-18T19:47:50.183Z,17.35
2023-04-18T19:50:16.835Z,17.30
2023-04-18T19:52:43.461Z,17.21
2023-04-18T19:55:10.055Z,17.16
2023-04-18T19:57:39.955Z,17.10
2023-04-18T20:00:07.356Z,17.10
2023-04-18T20:02:33.871Z,17.09
2023-04-18T20:05:00.699Z,17.09
2023-04-18T20:07:27.390Z,17.08
2023-04-18T20:09:53.918Z,17.06
2023-04-18T20:12:20.504Z,17.02
2023-04-18T20:14:46.993Z,17.00
2023-04-18T20:17:13.551Z,16.94
2023-04-18T20:19:39.981Z,16.89
2023-04-18T20:22:06.542Z,16.84
2023-04-18T20:24:34.583Z,16.81
2023-04-18T20:27:01.623Z,16.75
2023-04-18T20:29:28.149Z,16.73
2023-04-18T20:31:54.759Z,16.70
2023-04-18T20:34:21.297Z,16.68
2023-04-18T20:36:47.873Z,16.66
2023-04-18T20:39:14.607Z,16.62
2023-04-18T20:41:50.747Z,16.60
2023-04-18T20:44:19.069Z,16.56
2023-04-18T20:46:45.549Z,16.52
2023-04-18T20:49:12.004Z,16.50
2023-04-18T20:51:38.794Z,16.45
2023-04-18T20:54:05.770Z,16.40
2023-04-18T20:56:32.377Z,16.40
2023-04-18T20:58:58.758Z,16.37
2023-04-18T21:01:25.329Z,16.33
2023-04-18T21:03:52.268Z,16.32
2023-04-18T21:06:22.200Z,16.29
2023-04-18T21:08:48.819Z,16.26
2023-04-18T21:11:15.345Z,16.22
2023-04-18T21:13:41.806Z,16.18
2023-04-18T21:16:10.272Z,16.16
2023-04-18T21:18:36.991Z,16.15
2023-04-18T21:21:03.664Z,16.12
2023-04-18T21:23:32.968Z,16.12
2023-04-18T21:25:59.440Z,16.11
2023-04-18T21:28:26.070Z,16.08
2023-04-18T21:30:52.547Z,16.05
2023-04-18T21:33:19.325Z,16.02
2023-04-18T21:35:45.831Z,16.03
2023-04-18T21:38:12.376Z,16.03
2023-04-18T21:40:38.779Z,16.03
2023-04-18T21:43:05.328Z,16.03
2023-04-18T21:45:31.851Z,16.03
2023-04-18T21:47:58.392Z,16.03
2023-04-18T21:50:24.852Z,16.01
2023-04-18T21:52:51.368Z,15.99
2023-04-18T21:55:18.025Z,15.98
2023-04-18T21:57:44.542Z,15.99
2023-04-18T22:00:11.314Z,16.01
2023-04-18T22:02:38.991Z,16.02
2023-04-18T22:05:05.672Z,16.02
2023-04-18T22:07:32.370Z,16.01
2023-04-18T22:09:59.819Z,16.03
2023-04-18T22:12:26.453Z,16.05
2023-04-18T22:14:53.022Z,16.07
2023-04-18T22:17:21.012Z,16.08
2023-04-18T22:19:49.711Z,16.10
2023-04-18T22:22:16.328Z,16.07
2023-04-18T22:24:43.589Z,16.08
2023-04-18T22:27:11.629Z,16.09
2023-04-18T22:29:38.039Z,16.11
2023-04-18T22:32:04.593Z,16.10
2023-04-18T22:34:31.355Z,16.09
2023-04-18T22:36:57.825Z,16.09
2023-04-18T22:39:24.694Z,16.10
2023-04-18T22:41:51.165Z,16.08
2023-04-18T22:44:17.718Z,16.05
2023-04-18T22:46:44.644Z,15.99
2023-04-18T22:49:11.371Z,15.97
2023-04-18T22:51:38.267Z,15.95
2023-04-18T22:54:04.913Z,15.94
2023-04-18T22:56:31.411Z,15.94
2023-04-18T22:58:57.801Z,15.92
2023-04-18T23:01:25.626Z,15.89
2023-04-18T23:03:52.344Z,15.83
2023-04-18T23:06:18.829Z,15.76
2023-04-18T23:08:45.252Z,15.71
2023-04-18T23:11:11.755Z,15.66
2023-04-18T23:13:38.165Z,15.62
2023-04-18T23:16:04.821Z,15.61
2023-04-18T23:18:31.228Z,15.56
2023-04-18T23:20:57.723Z,15.51
2023-04-18T23:23:24.254Z,15.46
2023-04-18T23:25:50.771Z,15.42
2023-04-18T23:28:17.765Z,15.42
2023-04-18T23:30:44.232Z,15.39
2023-04-18T23:33:10.950Z,15.39
2023-04-18T23:35:37.724Z,15.38
2023-04-18T23:38:04.294Z,15.36
2023-04-18T23:40:30.942Z,15.35
2023-04-18T23:42:57.362Z,15.35
2023-04-18T23:45:24.565Z,15.33
2023-04-18T23:47:51.510Z,15.36
2023-04-18T23:50:18.124Z,15.37
2023-04-18T23:52:44.533Z,15.39
2023-04-18T23:55:11.000Z,15.40
2023-04-18T23:57:37.503Z,15.41
